TimeEST,TemperatureF,Dew PointF,Humidity,Sea Level PressureIn,VisibilityMPH,Wind Direction,Wind SpeedMPH,Gust SpeedMPH,PrecipitationIn,Events,Conditions,WindDirDegrees,DateUTC
12:15 AM,49.1,48.2,97,30.05,0.5,Calm,Calm,-,N/A,Fog,Fog,0,2012-12-08 05:15:00
12:35 AM,48.2,46.8,95,30.05,7.0,Calm,Calm,-,N/A,,Clear,0,2012-12-08 05:35:00
12:55 AM,47.8,46.6,95,30.05,4.0,Calm,Calm,-,N/A,,Scattered Clouds,0,2012-12-08 05:55:00
1:15 AM,47.3,45.9,95,30.05,5.0,Calm,Calm,-,N/A,,Scattered Clouds,0,2012-12-08 06:15:00
1:35 AM,47.3,46.0,95,30.05,5.0,Calm,Calm,-,N/A,,Mostly Cloudy,0,2012-12-08 06:35:00
1:55 AM,47.5,45.7,93,30.05,5.0,Calm,Calm,-,N/A,,Overcast,0,2012-12-08 06:55:00
2:15 AM,47.5,46.4,96,30.06,2.0,Calm,Calm,-,N/A,,Overcast,0,2012-12-08 07:15:00
2:35 AM,48.2,46.8,95,30.05,4.0,Calm,Calm,-,N/A,,Overcast,0,2012-12-08 07:35:00
2:55 AM,48.4,46.9,95,30.05,4.0,Calm,Calm,-,N/A,,Overcast,0,2012-12-08 07:55:00
3:15 AM,48.7,47.3,95,30.06,4.0,Calm,Calm,-,N/A,,Overcast,0,2012-12-08 08:15:00
3:35 AM,49.1,47.5,94,30.06,4.0,Calm,Calm,-,N/A,,Overcast,0,2012-12-08 08:35:00
3:55 AM,49.6,48.2,95,30.06,4.0,Calm,Calm,-,N/A,,Overcast,0,2012-12-08 08:55:00
4:15 AM,50.0,48.4,94,30.06,3.0,Calm,Calm,-,N/A,,Overcast,0,2012-12-08 09:15:00
4:35 AM,49.6,48.4,95,30.06,3.0,Calm,Calm,-,N/A,,Overcast,0,2012-12-08 09:35:00
4:55 AM,50.2,49.1,96,30.05,3.0,Calm,Calm,-,N/A,,Overcast,0,2012-12-08 09:55:00
5:15 AM,50.4,48.9,95,30.05,4.0,Calm,Calm,-,N/A,,Overcast,0,2012-12-08 10:15:00
5:35 AM,50.2,49.1,96,30.05,3.0,Calm,Calm,-,N/A,,Overcast,0,2012-12-08 10:35:00
6:15 AM,50.7,49.3,95,30.05,4.0,Calm,Calm,-,N/A,,Overcast,0,2012-12-08 11:15:00
6:35 AM,51.1,50.0,96,30.06,5.0,Calm,Calm,-,N/A,,Overcast,0,2012-12-08 11:35:00
6:55 AM,52.7,51.6,96,30.06,1.0,SE,3.5,-,N/A,,Overcast,140,2012-12-08 11:55:00
7:15 AM,52.9,51.8,96,30.07,1.5,Calm,Calm,-,N/A,,Overcast,0,2012-12-08 12:15:00
7:35 AM,52.9,51.8,96,30.07,2.5,Calm,Calm,-,N/A,,Overcast,0,2012-12-08 12:35:00
7:55 AM,52.5,51.4,96,30.08,0.5,Calm,Calm,-,N/A,Fog,Fog,0,2012-12-08 12:55:00
8:15 AM,53.2,52.2,96,30.08,2.5,Calm,Calm,-,N/A,,Overcast,0,2012-12-08 13:15:00
8:35 AM,54.3,52.9,95,30.09,4.0,Calm,Calm,-,N/A,,Overcast,0,2012-12-08 13:35:00
8:55 AM,56.3,54.0,92,30.09,7.0,Calm,Calm,-,N/A,,Overcast,0,2012-12-08 13:55:00
9:15 AM,57.4,54.5,90,30.10,7.0,Calm,Calm,-,N/A,,Overcast,0,2012-12-08 14:15:00
9:35 AM,59.0,55.2,87,30.10,10.0,Calm,Calm,-,N/A,,Overcast,0,2012-12-08 14:35:00
9:55 AM,60.8,55.4,82,30.11,10.0,Calm,Calm,-,N/A,,Overcast,0,2012-12-08 14:55:00
10:15 AM,62.1,55.6,79,30.11,10.0,ESE,3.5,-,N/A,,Mostly Cloudy,110,2012-12-08 15:15:00
10:35 AM,63.9,56.3,76,30.10,10.0,Calm,Calm,-,N/A,,Mostly Cloudy,0,2012-12-08 15:35:00
10:55 AM,66.0,56.7,72,30.10,10.0,Calm,Calm,-,N/A,,Overcast,0,2012-12-08 15:55:00
11:15 AM,66.9,56.5,69,30.10,10.0,South,4.6,-,N/A,,Overcast,190,2012-12-08 16:15:00
11:35 AM,68.9,56.7,65,30.09,10.0,South,4.6,-,N/A,,Overcast,170,2012-12-08 16:35:00
11:55 AM,70.2,56.1,61,30.08,10.0,SE,4.6,-,N/A,,Overcast,140,2012-12-08 16:55:00
12:15 PM,71.8,55.8,57,30.06,10.0,SE,3.5,-,N/A,,Overcast,130,2012-12-08 17:15:00
12:35 PM,74.1,54.7,51,30.05,10.0,SSE,3.5,-,N/A,,Scattered Clouds,150,2012-12-08 17:35:00
12:55 PM,74.7,54.5,49,30.04,10.0,SSE,6.9,-,N/A,,Clear,160,2012-12-08 17:55:00
1:15 PM,75.6,54.1,47,30.03,10.0,South,5.8,-,N/A,,Clear,170,2012-12-08 18:15:00
1:35 PM,76.5,54.5,46,30.02,10.0,SE,5.8,-,N/A,,Clear,130,2012-12-08 18:35:00
1:55 PM,77.0,52.7,43,30.02,10.0,South,5.8,-,N/A,,Clear,190,2012-12-08 18:55:00
2:15 PM,77.2,52.2,42,30.01,10.0,Calm,Calm,-,N/A,,Clear,0,2012-12-08 19:15:00
2:35 PM,77.0,52.3,42,30.01,10.0,South,3.5,-,N/A,,Clear,170,2012-12-08 19:35:00
2:55 PM,78.3,51.4,39,30.01,10.0,SSE,9.2,-,N/A,,Clear,150,2012-12-08 19:55:00
3:35 PM,78.3,50.5,38,30.02,10.0,SSW,6.9,-,N/A,,Clear,200,2012-12-08 20:35:00
3:55 PM,77.7,51.1,39,30.02,10.0,South,6.9,-,N/A,,Clear,180,2012-12-08 20:55:00
4:15 PM,77.4,52.0,41,30.02,10.0,South,5.8,-,N/A,,Clear,170,2012-12-08 21:15:00
4:35 PM,75.7,52.7,45,30.02,10.0,South,4.6,-,N/A,,Clear,180,2012-12-08 21:35:00
4:55 PM,75.0,53.6,47,30.02,10.0,South,6.9,-,N/A,,Clear,170,2012-12-08 21:55:00
5:15 PM,72.9,54.9,53,30.03,10.0,SE,4.6,-,N/A,,Clear,140,2012-12-08 22:15:00
5:35 PM,71.4,55.2,57,30.03,10.0,SE,4.6,-,N/A,,Clear,140,2012-12-08 22:35:00
5:55 PM,70.5,55.4,59,30.04,10.0,SE,3.5,-,N/A,,Mostly Cloudy,130,2012-12-08 22:55:00
6:15 PM,70.2,55.6,60,30.05,10.0,SE,5.8,-,N/A,,Overcast,140,2012-12-08 23:15:00
6:35 PM,70.7,55.4,58,30.05,10.0,SE,4.6,-,N/A,,Overcast,130,2012-12-08 23:35:00
6:55 PM,70.0,55.4,60,30.05,10.0,SE,4.6,-,N/A,,Overcast,130,2012-12-08 23:55:00
7:15 PM,69.6,55.4,61,30.05,10.0,SE,5.8,-,N/A,,Overcast,130,2012-12-09 00:15:00
7:35 PM,68.0,55.2,64,30.06,10.0,SE,4.6,-,N/A,,Mostly Cloudy,130,2012-12-09 00:35:00
7:55 PM,67.3,55.0,65,30.07,10.0,SE,4.6,-,N/A,,Scattered Clouds,130,2012-12-09 00:55:00
8:15 PM,66.9,55.2,66,30.07,10.0,SE,5.8,-,N/A,,Mostly Cloudy,130,2012-12-09 01:15:00
8:55 PM,65.5,55.4,70,30.07,10.0,Calm,Calm,-,N/A,,Mostly Cloudy,0,2012-12-09 01:55:00
9:15 PM,64.6,55.6,73,30.07,10.0,SSE,3.5,-,N/A,,Scattered Clouds,160,2012-12-09 02:15:00
9:35 PM,63.3,55.8,76,30.07,10.0,SSE,3.5,-,N/A,,Scattered Clouds,150,2012-12-09 02:35:00
9:55 PM,63.5,55.9,76,30.08,10.0,SSE,4.6,-,N/A,,Scattered Clouds,150,2012-12-09 02:55:00
10:15 PM,63.3,56.7,79,30.08,10.0,SSE,4.6,-,N/A,,Clear,150,2012-12-09 03:15:00
10:35 PM,63.1,57.4,81,30.08,10.0,SSE,3.5,-,N/A,,Clear,160,2012-12-09 03:35:00
10:55 PM,62.6,57.6,84,30.08,10.0,SSE,3.5,-,N/A,,Clear,150,2012-12-09 03:55:00
11:35 PM,61.7,57.9,87,30.09,10.0,Calm,Calm,-,N/A,,Clear,0,2012-12-09 04:35:00
11:55 PM,59.9,57.2,91,30.09,10.0,Calm,Calm,-,N/A,,Clear,0,2012-12-09 04:55:00